Time;durP1;ratioP1;P1;durP2;ratioP2;P2;SDS_P1;SDS_P2;PMS_P1;PMS_P2;Temp;Humidity;BMP_temperature;BMP_pressure;BME280_temperature;BME280_humidity;BME280_pressure;Samples;Min_cycle;Max_cycle;Signal;HPM_P1;HPM_P2
2022/04/28 00:00:33;;;;;;;26.27;19.57;;;;;;;9.36;81.59;101102.19;2832731;82;21018;-81
2022/04/28 00:04:37;;;;;;;21.75;17.87;;;;;;;9.32;82.12;101098.86;2809165;83;21119;-81
2022/04/28 00:08:38;;;;;;;22.73;17.62;;;;;;;9.26;82.06;101101.45;2822794;83;21633;-80
2022/04/28 00:12:40;;;;;;;27.80;19.32;;;;;;;9.10;82.56;101099.39;2838736;82;21054;-81
2022/04/28 00:16:41;;;;;;;23.20;16.75;;;;;;;9.08;82.06;101099.96;2840127;82;21055;-81
2022/04/28 00:20:43;;;;;;;26.50;18.12;;;;;;;9.05;81.73;101094.85;2837973;81;21008;-79
2022/04/28 00:24:45;;;;;;;20.85;16.50;;;;;;;8.91;82.08;101093.90;2849385;82;21563;-82
2022/04/28 00:28:46;;;;;;;26.68;19.62;;;;;;;8.84;82.36;101103.16;2829879;83;21020;-81
2022/04/28 00:32:48;;;;;;;24.82;18.25;;;;;;;8.68;83.60;101110.76;2853560;80;21342;-81
2022/04/28 00:36:49;;;;;;;21.85;17.55;;;;;;;8.50;84.42;101108.73;2815987;82;21358;-81
2022/04/28 00:40:50;;;;;;;24.25;18.37;;;;;;;8.52;84.44;101112.63;2823868;82;21032;-80
2022/04/28 00:44:51;;;;;;;21.77;17.85;;;;;;;8.48;84.77;101109.75;2854701;82;21054;-82
2022/04/28 00:53:14;;;;;;;24.77;18.67;;;;;;;8.38;85.73;101116.91;2826686;82;21634;-81
2022/04/28 00:57:16;;;;;;;23.83;16.67;;;;;;;8.35;85.98;101117.10;2846000;82;21050;-80
2022/04/28 01:01:17;;;;;;;25.17;16.80;;;;;;;8.34;86.07;101122.02;2844727;82;21017;-81
2022/04/28 01:05:18;;;;;;;23.98;17.00;;;;;;;8.40;86.01;101112.38;2840827;82;21579;-81
2022/04/28 01:09:19;;;;;;;21.10;15.08;;;;;;;8.39;85.96;101113.31;2838001;82;21000;-81
2022/04/28 01:13:22;;;;;;;22.52;16.37;;;;;;;8.55;85.62;101115.09;2818368;82;21024;-82
2022/04/28 01:17:23;;;;;;;23.18;17.80;;;;;;;8.70;84.99;101114.63;2852934;82;21575;-81
2022/04/28 01:21:25;;;;;;;17.98;13.22;;;;;;;8.76;84.71;101124.02;2820643;82;21049;-82
2022/04/28 01:25:26;;;;;;;28.10;16.42;;;;;;;8.77;84.32;101117.77;2827339;82;21567;-81
2022/04/28 01:29:27;;;;;;;26.80;16.25;;;;;;;8.76;84.19;101120.04;2824362;82;21123;-81
2022/04/28 01:33:29;;;;;;;18.10;14.38;;;;;;;8.73;83.92;101121.55;2827003;82;21032;-80
2022/04/28 01:37:30;;;;;;;16.40;13.78;;;;;;;8.76;82.90;101114.73;2839968;82;21012;-81
2022/04/28 01:41:33;;;;;;;22.10;16.00;;;;;;;8.84;82.83;101114.64;2822105;83;21020;-80
2022/04/28 01:45:35;;;;;;;19.55;15.38;;;;;;;9.03;83.15;101115.30;2838053;83;21622;-81
2022/04/28 01:49:36;;;;;;;22.45;14.43;;;;;;;9.13;82.49;101111.13;2843664;82;20996;-80
2022/04/28 01:57:58;;;;;;;16.80;12.88;;;;;;;9.43;82.30;101112.78;2801496;82;21082;-81
2022/04/28 02:02:00;;;;;;;16.67;12.75;;;;;;;9.55;81.72;101114.66;2852018;82;21165;-81
2022/04/28 02:06:01;;;;;;;20.68;12.00;;;;;;;9.58;81.07;101117.11;2841554;82;21049;-80
2022/04/28 02:10:04;;;;;;;14.65;10.40;;;;;;;9.52;80.44;101114.86;2832893;82;21007;-81
2022/04/28 02:14:06;;;;;;;14.78;12.93;;;;;;;9.46;81.28;101115.27;2803635;82;21325;-81
2022/04/28 02:18:07;;;;;;;15.63;11.70;;;;;;;9.51;81.30;101111.83;2788241;84;21029;-80
2022/04/28 02:22:09;;;;;;;17.73;12.23;;;;;;;9.63;81.20;101124.80;2805673;83;21011;-81
2022/04/28 02:26:10;;;;;;;14.58;11.78;;;;;;;9.56;80.89;101118.19;2795552;84;21028;-80
2022/04/28 02:30:12;;;;;;;17.60;13.05;;;;;;;9.55;80.32;101118.64;2779334;84;21483;-81
2022/04/28 02:34:13;;;;;;;18.80;11.40;;;;;;;9.49;80.92;101117.72;2783943;84;21049;-80
2022/04/28 02:38:14;;;;;;;21.97;13.00;;;;;;;9.39;80.66;101125.88;2785952;84;21069;-81
2022/04/28 02:42:16;;;;;;;17.92;11.93;;;;;;;9.43;81.25;101117.63;2733147;83;21033;-78
2022/04/28 02:46:18;;;;;;;14.60;12.47;;;;;;;9.50;81.20;101116.77;2791655;83;21040;-81
2022/04/28 02:50:21;;;;;;;19.73;12.40;;;;;;;9.45;81.79;101118.87;2780918;84;21040;-81
2022/04/28 02:54:23;;;;;;;14.93;10.48;;;;;;;9.56;82.02;101123.00;2738897;84;21063;-81
2022/04/28 02:58:25;;;;;;;13.28;10.65;;;;;;;9.62;82.17;101126.20;2764672;84;21564;-81
2022/04/28 03:02:26;;;;;;;12.15;10.43;;;;;;;9.50;81.83;101129.18;2794831;84;21104;-81
2022/04/28 03:10:49;;;;;;;12.65;9.58;;;;;;;9.60;80.89;101124.13;2841286;82;21578;-81
2022/04/28 03:14:50;;;;;;;12.88;9.43;;;;;;;9.65;80.68;101124.70;2833860;80;21057;-80
2022/04/28 03:18:52;;;;;;;16.35;11.03;;;;;;;9.70;81.02;101135.88;2866682;80;21602;-80
2022/04/28 03:22:53;;;;;;;19.20;11.70;;;;;;;9.68;81.56;101133.31;2783544;82;21034;-81
2022/04/28 03:26:55;;;;;;;16.67;11.95;;;;;;;9.74;81.85;101136.05;2867205;81;21084;-81
2022/04/28 03:30:56;;;;;;;18.23;12.30;;;;;;;9.76;82.10;101139.95;2851997;81;21031;-81
2022/04/28 03:34:57;;;;;;;14.33;12.53;;;;;;;9.62;82.19;101144.34;2848173;81;21025;-82
2022/04/28 03:38:58;;;;;;;17.25;12.43;;;;;;;9.51;82.80;101145.49;2875278;81;21017;-81
2022/04/28 03:43:00;;;;;;;15.32;12.90;;;;;;;9.39;83.04;101146.66;2860463;81;21054;-81
2022/04/28 03:47:03;;;;;;;17.20;12.53;;;;;;;9.33;83.38;101152.83;2856863;80;21315;-82
2022/04/28 03:51:04;;;;;;;18.15;11.97;;;;;;;9.36;83.34;101161.92;2836736;82;21086;-81
2022/04/28 03:55:06;;;;;;;17.92;12.70;;;;;;;9.42;83.88;101160.20;2828057;81;21577;-81
2022/04/28 03:59:09;;;;;;;14.65;11.60;;;;;;;9.43;85.15;101161.45;2870499;80;20982;-81
2022/04/28 04:03:11;;;;;;;16.17;11.40;;;;;;;9.43;84.31;101157.47;2868554;81;21110;-80
2022/04/28 04:07:12;;;;;;;16.20;12.05;;;;;;;9.45;84.22;101173.31;2866473;80;21451;-80
2022/04/28 04:11:13;;;;;;;15.93;11.40;;;;;;;9.45;84.42;101174.64;2852299;81;21038;-81
2022/04/28 04:15:15;;;;;;;18.05;10.98;;;;;;;9.36;83.50;101185.83;2866661;81;20986;-81
2022/04/28 04:19:17;;;;;;;16.97;13.35;;;;;;;9.42;82.92;101178.80;2733639;84;21020;-82
2022/04/28 04:23:18;;;;;;;22.10;12.18;;;;;;;9.42;83.83;101185.43;2847887;81;21071;-82
2022/04/28 04:27:20;;;;;;;21.05;14.25;;;;;;;9.44;83.50;101187.55;2791147;83;21604;-81
2022/04/28 04:35:41;;;;;;;17.80;12.58;;;;;;;9.40;85.14;101187.34;2872199;81;21010;-88
2022/04/28 04:39:43;;;;;;;16.02;11.88;;;;;;;9.34;85.90;101197.02;2869795;81;21056;-82
2022/04/28 04:43:45;;;;;;;13.32;12.00;;;;;;;9.26;86.80;101199.69;2848209;81;21582;-81
2022/04/28 04:47:46;;;;;;;16.07;11.45;;;;;;;9.25;86.55;101200.64;2837425;82;21451;-81
2022/04/28 04:51:47;;;;;;;17.60;13.25;;;;;;;9.30;86.90;101206.97;2869178;80;21152;-80
2022/04/28 04:55:48;;;;;;;18.37;12.47;;;;;;;9.42;86.42;101202.70;2848372;81;21144;-79
2022/04/28 04:59:50;;;;;;;18.37;14.53;;;;;;;9.42;86.78;101213.31;2830657;81;21083;-81
2022/04/28 05:03:51;;;;;;;19.30;13.80;;;;;;;9.68;87.19;101214.34;2875176;80;21121;-80
2022/04/28 05:07:52;;;;;;;19.73;13.25;;;;;;;9.88;86.91;101211.38;2876334;81;20996;-80
2022/04/28 05:11:54;;;;;;;14.95;10.58;;;;;;;10.39;85.80;101222.20;2877694;80;21114;-80
2022/04/28 05:15:55;;;;;;;16.07;12.47;;;;;;;11.20;83.52;101223.50;2898826;80;21365;-81
2022/04/28 05:19:58;;;;;;;18.73;13.75;;;;;;;11.68;79.46;101220.60;2880388;80;21036;-81
2022/04/28 05:23:59;;;;;;;18.25;13.40;;;;;;;12.06;78.57;101222.33;2882784;81;21634;-81
2022/04/28 05:28:00;;;;;;;21.82;12.53;;;;;;;12.90;78.81;101222.77;2858033;82;21054;-80
2022/04/28 05:32:01;;;;;;;16.05;11.93;;;;;;;13.73;75.34;101222.59;2862913;80;21547;-81
2022/04/28 05:36:09;;;;;;;16.55;10.60;;;;;;;14.39;71.58;101224.38;2876304;81;21019;-79
2022/04/28 05:40:11;;;;;;;11.93;10.47;;;;;;;13.84;68.77;101229.75;2880397;81;21053;-80
2022/04/28 05:48:34;;;;;;;13.65;11.18;;;;;;;13.07;71.08;101248.20;2865088;80;21011;-80
2022/04/28 05:52:36;;;;;;;17.27;10.05;;;;;;;13.49;69.88;101243.63;2872198;81;21938;-80
2022/04/28 05:56:38;;;;;;;17.77;10.08;;;;;;;13.83;67.23;101244.09;2867701;82;21090;-81
2022/04/28 06:00:39;;;;;;;15.93;10.13;;;;;;;13.97;65.54;101244.34;2814766;83;21018;-80
2022/04/28 06:04:40;;;;;;;14.68;10.78;;;;;;;14.05;65.39;101241.88;2856873;82;20990;-81
2022/04/28 06:08:41;;;;;;;12.93;10.15;;;;;;;14.06;64.09;101252.94;2879722;81;21563;-81
2022/04/28 06:12:43;;;;;;;12.18;10.43;;;;;;;14.19;63.86;101259.47;2872382;81;21028;-79
2022/04/28 06:16:44;;;;;;;18.37;10.28;;;;;;;14.41;63.57;101265.25;2880196;80;21015;-80
2022/04/28 06:20:46;;;;;;;13.98;11.28;;;;;;;14.40;62.78;101267.57;2876136;80;21011;-80
2022/04/28 06:24:54;;;;;;;17.02;12.25;;;;;;;14.59;63.37;101268.72;2860161;80;21502;-80
2022/04/28 06:28:56;;;;;;;17.55;12.45;;;;;;;14.80;65.94;101269.27;2880030;81;21154;-81
2022/04/28 06:32:57;;;;;;;12.80;10.98;;;;;;;14.72;62.79;101271.25;2886133;82;21566;-80
2022/04/28 06:36:58;;;;;;;15.05;10.98;;;;;;;14.85;63.81;101274.59;2876581;80;21034;-80
2022/04/28 06:40:59;;;;;;;13.35;9.33;;;;;;;14.83;64.14;101271.67;2857699;80;21034;-79
2022/04/28 06:45:01;;;;;;;14.03;9.68;;;;;;;14.98;63.18;101269.52;2866892;80;21031;-80
2022/04/28 06:49:02;;;;;;;12.80;9.33;;;;;;;15.13;63.03;101269.55;2873495;82;20991;-80
2022/04/28 06:53:03;;;;;;;17.17;9.73;;;;;;;15.23;62.27;101270.95;2876184;80;21019;-80
2022/04/28 06:57:05;;;;;;;9.63;7.78;;;;;;;15.37;62.53;101280.98;2886626;80;21585;-80
2022/04/28 07:01:07;;;;;;;10.58;7.45;;;;;;;15.48;61.08;101284.91;2882279;81;21134;-80
2022/04/28 07:05:09;;;;;;;9.75;6.35;;;;;;;15.93;62.34;101284.22;2879666;80;21064;-80
2022/04/28 07:09:10;;;;;;;7.45;6.67;;;;;;;15.95;60.14;101295.14;2864772;81;21070;-81
2022/04/28 07:13:11;;;;;;;7.58;6.33;;;;;;;16.02;61.00;101302.16;2871043;80;21058;-81
2022/04/28 07:17:12;;;;;;;9.23;6.87;;;;;;;16.12;58.45;101300.38;2869808;81;21055;-81
2022/04/28 07:21:14;;;;;;;11.38;5.90;;;;;;;16.41;59.40;101299.56;2872450;81;21054;-79
2022/04/28 07:25:15;;;;;;;5.40;4.85;;;;;;;16.51;56.58;101302.26;2832448;82;21079;-81
2022/04/28 07:29:16;;;;;;;6.03;4.92;;;;;;;16.54;54.26;101304.66;2870371;80;21042;-81
2022/04/28 07:33:17;;;;;;;7.45;4.90;;;;;;;16.54;55.95;101309.20;2881061;81;21000;-80
2022/04/28 07:37:18;;;;;;;8.83;5.60;;;;;;;16.41;54.99;101310.30;2865961;81;21035;-79
2022/04/28 07:41:19;;;;;;;7.97;5.47;;;;;;;16.40;56.98;101308.60;2829255;81;21022;-80
2022/04/28 07:45:20;;;;;;;6.85;5.83;;;;;;;16.59;55.54;101306.06;2859584;81;20984;-80
2022/04/28 07:49:21;;;;;;;6.30;5.72;;;;;;;16.64;55.94;101307.86;2857205;81;21055;-81
2022/04/28 07:53:23;;;;;;;5.60;5.10;;;;;;;16.66;54.10;101309.39;2832406;80;20964;-79
2022/04/28 07:57:24;;;;;;;7.08;5.20;;;;;;;16.90;57.53;101313.52;2868751;81;21070;-80
2022/04/28 08:01:25;;;;;;;9.43;5.67;;;;;;;17.10;56.78;101305.47;2866869;80;21099;-80
2022/04/28 08:05:27;;;;;;;8.10;5.80;;;;;;;17.33;55.47;101305.14;2879282;81;21035;-80
2022/04/28 08:09:28;;;;;;;5.83;5.25;;;;;;;17.36;54.89;101306.19;2868591;80;21046;-80
2022/04/28 08:13:29;;;;;;;7.87;6.00;;;;;;;17.36;56.46;101315.08;2868949;80;21071;-80
2022/04/28 08:17:30;;;;;;;7.83;4.70;;;;;;;17.48;53.82;101313.06;2868523;81;21600;-80
2022/04/28 08:21:32;;;;;;;8.60;5.22;;;;;;;17.62;53.56;101313.59;2863780;81;21558;-80
2022/04/28 08:25:33;;;;;;;6.00;4.95;;;;;;;17.68;56.43;101312.52;2824886;81;21051;-80
2022/04/28 08:29:34;;;;;;;12.20;7.22;;;;;;;17.55;54.29;101315.54;2890431;80;21498;-79
2022/04/28 08:33:35;;;;;;;11.35;7.22;;;;;;;17.56;54.66;101317.72;2865254;81;21030;-80
2022/04/28 08:37:39;;;;;;;9.08;5.40;;;;;;;17.83;54.05;101321.45;2871770;80;21022;-80
2022/04/28 08:41:42;;;;;;;9.30;6.40;;;;;;;17.69;52.74;101318.25;2853410;80;21157;-79
2022/04/28 08:50:09;;;;;;;4.12;3.37;;;;;;;18.01;54.17;101320.16;2870048;80;21011;-78
2022/04/28 08:54:13;;;;;;;6.17;4.85;;;;;;;18.17;57.05;101314.66;2860535;81;21288;-80
2022/04/28 08:58:14;;;;;;;6.00;4.67;;;;;;;17.96;52.52;101321.11;2850386;81;21075;-81
2022/04/28 09:02:22;;;;;;;4.05;3.65;;;;;;;17.87;53.40;101324.67;2863868;82;21050;-81
2022/04/28 09:06:30;;;;;;;6.62;4.37;;;;;;;17.77;53.47;101321.55;2876513;81;21070;-81
2022/04/28 09:10:33;;;;;;;5.72;4.55;;;;;;;17.80;52.50;101322.59;2822950;81;21094;-81
2022/04/28 09:14:35;;;;;;;5.92;4.35;;;;;;;17.82;53.08;101320.59;2855009;81;21534;-81
2022/04/28 09:18:36;;;;;;;6.53;4.72;;;;;;;17.91;53.43;101320.72;2835776;82;21039;-81
2022/04/28 09:22:43;;;;;;;5.85;4.90;;;;;;;17.92;53.63;101323.76;2876190;80;21032;-81
2022/04/28 09:26:44;;;;;;;5.62;5.00;;;;;;;17.82;51.26;101320.59;2877505;80;21023;-81
2022/04/28 09:30:51;;;;;;;7.87;5.25;;;;;;;17.81;52.37;101324.28;2881417;81;21033;-81
2022/04/28 09:34:53;;;;;;;4.60;4.05;;;;;;;17.89;50.40;101322.71;2832669;81;21029;-81
2022/04/28 09:38:55;;;;;;;5.17;4.65;;;;;;;17.73;52.24;101328.70;2870766;81;21569;-81
2022/04/28 09:42:57;;;;;;;6.80;5.05;;;;;;;17.78;53.67;101334.48;2882792;81;21659;-81
2022/04/28 09:46:59;;;;;;;6.42;4.42;;;;;;;17.58;53.00;101326.48;2881190;81;21034;-81
2022/04/28 09:51:10;;;;;;;7.80;4.75;;;;;;;17.33;51.95;101316.72;2860714;81;21106;-81
2022/04/28 09:55:11;;;;;;;5.10;4.60;;;;;;;17.18;50.91;101314.13;2860433;81;21120;-82
2022/04/28 09:59:13;;;;;;;9.00;5.87;;;;;;;17.41;53.43;101324.06;2885320;80;21655;-81
2022/04/28 10:03:14;;;;;;;7.05;4.25;;;;;;;17.52;54.80;101321.22;2891676;81;21116;-81
2022/04/28 10:07:17;;;;;;;11.45;4.58;;;;;;;17.08;49.89;101316.83;2887199;80;21051;-81
2022/04/28 10:11:24;;;;;;;6.67;5.05;;;;;;;17.08;56.06;101328.92;2855565;81;21022;-81
2022/04/28 10:15:28;;;;;;;9.10;5.30;;;;;;;17.16;55.68;101323.70;2874596;80;20980;-81
2022/04/28 10:19:34;;;;;;;6.65;4.65;;;;;;;17.20;51.68;101323.76;2867641;81;21024;-81
2022/04/28 10:32:55;;;;;;;8.58;4.87;;;;;;;17.64;52.65;101318.33;2815827;83;21125;-81
2022/04/28 10:37:04;;;;;;;5.55;5.03;;;;;;;17.46;51.38;101315.05;2712565;85;21197;-81
2022/04/28 10:41:08;;;;;;;5.55;3.92;;;;;;;17.52;51.18;101311.80;2649619;86;21097;-81
2022/04/28 10:45:30;;;;;;;6.20;4.85;;;;;;;17.96;52.93;101315.21;2672683;86;21031;-80
2022/04/28 10:49:43;;;;;;;6.58;4.70;;;;;;;18.22;54.19;101321.29;2641782;87;21724;-80
2022/04/28 10:54:21;;;;;;;7.03;3.58;;;;;;;18.31;51.50;101322.71;2709656;85;21650;-80
2022/04/28 10:58:26;;;;;;;4.20;3.80;;;;;;;18.41;51.45;101308.70;2716964;86;21044;-81
2022/04/28 11:02:37;;;;;;;9.48;5.03;;;;;;;18.34;48.09;101317.02;2674828;86;21051;-81
2022/04/28 11:06:44;;;;;;;4.75;4.35;;;;;;;18.20;51.56;101323.77;2677362;86;21685;-80
2022/04/28 11:11:03;;;;;;;6.83;4.80;;;;;;;18.31;49.13;101315.98;2671128;87;21862;-80
2022/04/28 11:15:10;;;;;;;6.12;5.53;;;;;;;18.23;50.49;101317.59;2767358;85;21101;-79
2022/04/28 11:19:12;;;;;;;10.00;5.17;;;;;;;18.31;48.62;101322.23;2873718;80;21023;-78
2022/04/28 11:23:17;;;;;;;5.37;3.37;;;;;;;18.67;54.02;101315.52;2873765;81;21049;-79
2022/04/28 11:27:20;;;;;;;4.53;4.12;;;;;;;18.79;52.72;101314.78;2855678;80;21039;-79
2022/04/28 11:31:22;;;;;;;5.90;3.60;;;;;;;18.92;51.53;101318.91;2861392;80;22265;-79
2022/04/28 11:35:39;;;;;;;7.62;4.58;;;;;;;18.80;48.21;101315.62;2787414;82;21624;-77
2022/04/28 11:39:36;;;;;;;6.20;4.83;;;;;;;18.31;51.20;101319.53;2850031;82;21067;-79
2022/04/28 11:43:37;;;;;;;43.02;28.70;;;;;;;18.29;51.71;101313.45;2875511;81;21024;-79
2022/04/28 11:47:45;;;;;;;14.83;10.65;;;;;;;18.23;49.23;101319.42;2889567;80;20980;-79
2022/04/28 11:51:47;;;;;;;6.22;4.87;;;;;;;18.41;49.86;101320.81;2887903;80;21158;-79
2022/04/28 11:55:50;;;;;;;5.97;4.33;;;;;;;18.58;51.08;101314.25;2879959;81;21039;-78
2022/04/28 11:59:52;;;;;;;6.25;4.33;;;;;;;18.70;51.06;101318.39;2860090;82;24698;-79
2022/04/28 12:03:56;;;;;;;4.85;3.65;;;;;;;18.54;51.75;101319.09;2825974;82;21070;-78
2022/04/28 12:07:59;;;;;;;4.20;3.20;;;;;;;18.54;49.74;101309.14;2881913;81;20985;-79
2022/04/28 12:19:19;;;;;;;4.70;3.87;;;;;;;18.36;49.31;101309.62;2889487;82;21039;-78
2022/04/28 12:20:31;;;;;;;5.15;3.67;;;;;;;18.41;49.53;101306.00;2833035;82;21051;-79
2022/04/28 12:24:35;;;;;;;4.87;4.42;;;;;;;18.67;48.41;101303.40;2887425;80;21023;-79
2022/04/28 12:28:44;;;;;;;6.03;3.35;;;;;;;18.80;49.40;101296.75;2862368;81;21022;-81
2022/04/28 12:32:53;;;;;;;4.90;3.65;;;;;;;18.91;51.15;101299.22;2869830;80;21650;-80
2022/04/28 12:37:00;;;;;;;4.45;3.65;;;;;;;19.12;50.06;101300.75;2798321;83;21072;-81
2022/04/28 12:41:18;;;;;;;7.25;4.42;;;;;;;19.19;46.75;101297.75;2861248;80;21499;-80
2022/04/28 12:45:40;;;;;;;5.72;3.42;;;;;;;19.36;50.00;101289.77;2878519;80;21081;-80
2022/04/28 12:49:48;;;;;;;4.67;2.98;;;;;;;19.25;46.39;101290.37;2836902;81;21489;-81
2022/04/28 12:53:55;;;;;;;7.05;3.42;;;;;;;19.22;49.23;101283.95;2864937;81;21007;-79
2022/04/28 12:57:58;;;;;;;6.10;3.72;;;;;;;19.28;47.62;101273.55;2883144;81;21039;-81
2022/04/28 13:01:59;;;;;;;4.12;3.25;;;;;;;19.37;47.31;101286.07;2873515;81;21110;-81
2022/04/28 13:06:01;;;;;;;3.92;3.42;;;;;;;19.53;47.62;101286.17;2873929;80;21027;-81
2022/04/28 13:10:03;;;;;;;4.90;3.30;;;;;;;19.73;48.49;101279.17;2873740;81;21023;-80
2022/04/28 13:14:10;;;;;;;3.40;3.08;;;;;;;19.97;46.08;101271.71;2855157;81;20987;-80
2022/04/28 13:18:11;;;;;;;2.95;2.37;;;;;;;20.18;46.65;101262.80;2833586;80;21051;-79
2022/04/28 13:22:13;;;;;;;5.53;3.52;;;;;;;20.08;48.92;101254.36;2879140;80;20999;-80
2022/04/28 13:26:18;;;;;;;7.12;3.90;;;;;;;20.00;47.94;101258.37;2871349;81;21012;-82
2022/04/28 13:30:19;;;;;;;6.80;2.85;;;;;;;19.56;46.44;101264.77;2839157;81;21125;-80
2022/04/28 13:34:21;;;;;;;5.92;2.65;;;;;;;19.03;48.64;101266.63;2840787;81;21083;-80
2022/04/28 13:38:23;;;;;;;5.45;3.12;;;;;;;18.76;48.29;101254.95;2875982;81;21030;-82
2022/04/28 13:42:24;;;;;;;5.33;2.90;;;;;;;18.55;49.26;101252.08;2879016;80;21084;-81
2022/04/28 13:46:25;;;;;;;4.15;2.70;;;;;;;18.35;50.52;101252.23;2874154;81;21093;-81
2022/04/28 13:50:27;;;;;;;5.78;2.27;;;;;;;18.30;50.58;101247.82;2868643;80;21107;-82
2022/04/28 13:54:29;;;;;;;8.75;2.45;;;;;;;18.54;49.40;101240.45;2875049;81;20999;-80
2022/04/28 13:58:31;;;;;;;9.68;3.50;;;;;;;18.71;47.07;101240.59;2858635;80;20972;-79
2022/04/28 14:02:33;;;;;;;4.03;3.52;;;;;;;18.72;48.61;101240.09;2866605;80;21033;-80
2022/04/28 14:06:34;;;;;;;4.97;3.70;;;;;;;18.78;50.40;101247.06;2872930;81;21078;-79
2022/04/28 14:10:35;;;;;;;4.47;3.27;;;;;;;19.09;48.85;101239.88;2878198;80;21014;-81
2022/04/28 14:14:37;;;;;;;2.55;2.33;;;;;;;19.43;47.18;101231.98;2875374;81;20983;-82
2022/04/28 14:18:38;;;;;;;9.70;3.17;;;;;;;19.55;47.88;101231.53;2908530;80;21079;-81
2022/04/28 14:22:40;;;;;;;3.92;3.10;;;;;;;19.47;47.04;101233.34;2877812;80;20998;-81
2022/04/28 14:26:41;;;;;;;3.85;3.25;;;;;;;19.39;47.33;101231.45;2868906;80;21029;-80
2022/04/28 14:30:42;;;;;;;4.05;2.25;;;;;;;19.32;48.59;101235.80;2883818;80;20991;-79
2022/04/28 14:34:44;;;;;;;10.63;3.50;;;;;;;19.51;49.96;101219.86;2883920;80;21071;-81
2022/04/28 14:38:45;;;;;;;3.75;3.37;;;;;;;19.56;47.57;101222.95;2880824;81;21042;-79
2022/04/28 14:42:46;;;;;;;4.33;3.25;;;;;;;19.55;48.04;101219.39;2863900;80;21110;-80
2022/04/28 14:46:49;;;;;;;7.87;3.40;;;;;;;19.33;47.93;101233.45;2874663;81;21016;-81
2022/04/28 14:55:11;;;;;;;4.37;3.22;;;;;;;18.86;48.52;101230.59;2858337;81;20992;-81
2022/04/28 14:59:12;;;;;;;8.13;3.60;;;;;;;18.81;49.46;101222.48;2891184;81;21018;-81
2022/04/28 15:03:13;;;;;;;4.08;3.42;;;;;;;18.61;49.46;101224.51;2888356;80;21063;-82
2022/04/28 15:07:16;;;;;;;4.33;2.85;;;;;;;18.48;48.81;101221.39;2883855;80;21457;-82
2022/04/28 15:11:18;;;;;;;3.30;3.00;;;;;;;18.60;50.40;101220.64;2881693;81;21031;-82
2022/04/28 15:15:20;;;;;;;4.30;2.60;;;;;;;18.72;49.53;101219.89;2796741;81;21466;-81
2022/04/28 15:19:21;;;;;;;3.33;3.02;;;;;;;18.94;49.07;101215.33;2888049;81;21027;-81
2022/04/28 15:23:23;;;;;;;2.47;2.27;;;;;;;18.81;49.53;101219.80;2863713;80;21149;-80
2022/04/28 15:27:25;;;;;;;3.95;3.20;;;;;;;18.51;48.33;101216.52;2901432;80;20983;-81
2022/04/28 15:31:28;;;;;;;5.35;3.00;;;;;;;18.34;50.56;101223.61;2856015;81;21023;-81
2022/04/28 15:35:29;;;;;;;4.40;2.15;;;;;;;18.30;51.89;101219.55;2898975;81;21599;-79
2022/04/28 15:39:31;;;;;;;2.77;2.02;;;;;;;18.50;50.58;101218.03;2865122;81;21019;-79
2022/04/28 15:43:32;;;;;;;3.65;2.92;;;;;;;18.74;49.06;101213.31;2879129;81;21006;-82
2022/04/28 15:47:33;;;;;;;7.25;3.30;;;;;;;18.90;48.26;101215.80;2886191;81;21028;-79
2022/04/28 15:51:36;;;;;;;5.28;2.77;;;;;;;18.92;48.07;101220.03;2862734;80;21006;-81
2022/04/28 15:55:39;;;;;;;4.22;3.12;;;;;;;18.92;47.83;101221.87;2872655;80;21142;-81
2022/04/28 15:59:40;;;;;;;4.10;1.95;;;;;;;18.72;48.58;101221.23;2864341;81;21011;-81
2022/04/28 16:03:42;;;;;;;3.17;2.52;;;;;;;18.32;48.72;101218.03;2842452;81;21026;-82
2022/04/28 16:07:44;;;;;;;4.25;2.27;;;;;;;18.03;48.87;101221.28;2849657;81;21008;-80
2022/04/28 16:11:46;;;;;;;3.20;2.75;;;;;;;17.78;50.57;101222.81;2883348;80;20982;-79
2022/04/28 16:15:49;;;;;;;4.62;3.52;;;;;;;17.75;52.05;101217.25;2874011;82;21610;-81
2022/04/28 16:19:50;;;;;;;3.98;3.58;;;;;;;17.87;52.14;101219.72;2856863;81;21186;-81
2022/04/28 16:23:51;;;;;;;3.47;3.17;;;;;;;17.93;50.04;101211.06;2861188;80;20962;-86
2022/04/28 16:27:52;;;;;;;6.55;3.08;;;;;;;17.81;49.72;101219.33;2857902;80;21057;-86
2022/04/28 16:31:53;;;;;;;4.60;3.40;;;;;;;17.67;51.89;101222.03;2911057;80;21047;-87
2022/04/28 16:35:55;;;;;;;4.80;2.87;;;;;;;17.53;52.55;101220.70;2895064;80;21002;-86
2022/04/28 16:39:56;;;;;;;6.08;3.05;;;;;;;17.45;52.40;101223.77;2871265;80;21074;-86
2022/04/28 16:43:57;;;;;;;5.42;4.03;;;;;;;17.53;53.45;101224.73;2862508;81;20963;-80
2022/04/28 16:47:58;;;;;;;4.83;3.25;;;;;;;17.75;54.03;101228.02;2876622;80;20995;-82
2022/04/28 16:52:01;;;;;;;7.72;3.87;;;;;;;17.87;52.04;101234.03;2889388;80;20979;-81
2022/04/28 16:56:03;;;;;;;3.40;2.83;;;;;;;17.87;52.76;101236.73;2829415;81;21042;-81
2022/04/28 17:00:11;;;;;;;3.75;3.22;;;;;;;17.77;52.47;101234.09;2884936;79;20987;-81
2022/04/28 17:04:16;;;;;;;3.33;2.80;;;;;;;17.63;52.64;101238.62;2880826;80;20997;-79
2022/04/28 17:08:17;;;;;;;4.47;2.62;;;;;;;17.42;52.79;101245.08;2906420;79;21042;-81
2022/04/28 17:12:18;;;;;;;3.65;3.35;;;;;;;17.26;53.12;101244.36;2877423;80;21015;-81
2022/04/28 17:16:19;;;;;;;3.87;3.52;;;;;;;17.12;52.32;101247.03;2876382;80;21669;-80
2022/04/28 17:20:20;;;;;;;3.70;3.20;;;;;;;16.97;52.91;101250.61;2908456;79;21047;-81
2022/04/28 17:24:22;;;;;;;10.32;4.35;;;;;;;16.76;52.93;101254.32;2880641;80;20961;-83
2022/04/28 17:28:24;;;;;;;3.85;3.08;;;;;;;16.64;53.73;101257.66;2884392;81;21014;-81
2022/04/28 17:32:25;;;;;;;5.78;3.35;;;;;;;16.53;55.02;101263.19;2794449;81;21450;-84
2022/04/28 17:36:27;;;;;;;7.97;4.15;;;;;;;16.37;55.66;101261.04;2852232;81;21371;-82
2022/04/28 17:40:28;;;;;;;6.03;3.60;;;;;;;16.20;55.59;101262.58;2839500;80;21076;-81
2022/04/28 17:44:29;;;;;;;5.90;3.15;;;;;;;16.06;56.00;101278.08;2804321;82;21023;-78
2022/04/28 17:48:32;;;;;;;5.47;3.92;;;;;;;15.97;56.64;101270.87;2863102;81;21016;-83
2022/04/28 17:52:33;;;;;;;9.25;4.12;;;;;;;15.84;57.07;101273.27;2831618;81;21003;-83
2022/04/28 18:00:54;;;;;;;4.85;3.45;;;;;;;15.56;56.71;101287.78;2856867;82;21039;-80
2022/04/28 18:04:58;;;;;;;5.50;3.72;;;;;;;15.41;55.00;101289.11;2819651;82;21559;-83
2022/04/28 18:08:59;;;;;;;3.85;3.10;;;;;;;15.32;54.13;101290.75;2865918;82;21030;-80
2022/04/28 18:13:01;;;;;;;5.20;3.50;;;;;;;15.27;53.53;101300.52;2849491;81;21293;-82
2022/04/28 18:17:04;;;;;;;6.55;3.75;;;;;;;15.23;53.21;101301.77;2848420;81;21117;-84
2022/04/28 18:21:05;;;;;;;6.28;4.40;;;;;;;15.22;52.82;101309.45;2813733;81;21035;-83
2022/04/28 18:25:07;;;;;;;4.55;4.15;;;;;;;15.21;52.70;101314.46;2872102;81;21053;-83
2022/04/28 18:29:08;;;;;;;6.15;4.25;;;;;;;15.14;53.92;101321.33;2876394;81;21109;-80
2022/04/28 18:33:10;;;;;;;4.80;4.30;;;;;;;15.03;55.17;101325.40;2885533;80;21088;-77
2022/04/28 18:45:53;;;;;;;4.83;4.25;;;;;;;14.70;56.06;101334.26;2883695;80;21037;-86
2022/04/28 18:49:56;;;;;;;6.17;4.33;;;;;;;14.55;55.89;101338.23;2875718;81;21073;-86
2022/04/28 18:53:57;;;;;;;5.03;4.12;;;;;;;14.42;56.46;101338.36;2880543;80;21661;-83
2022/04/28 18:57:58;;;;;;;4.83;3.55;;;;;;;14.29;56.84;101347.88;2893624;79;21070;-86
2022/04/28 19:01:59;;;;;;;6.80;5.17;;;;;;;14.16;58.25;101353.88;2881734;79;21110;-87
2022/04/28 19:06:01;;;;;;;6.20;4.42;;;;;;;13.99;58.78;101352.89;2857688;81;21011;-86
2022/04/28 19:10:05;;;;;;;7.85;4.25;;;;;;;13.81;59.38;101361.03;2852807;81;21193;-87
2022/04/28 19:18:25;;;;;;;14.00;7.62;;;;;;;13.51;59.83;101371.83;2840038;81;21063;-86
2022/04/28 19:22:27;;;;;;;10.72;7.20;;;;;;;13.35;60.86;101376.11;2867297;81;21113;-84
2022/04/28 19:26:28;;;;;;;19.60;7.55;;;;;;;13.20;61.48;101379.00;2896752;80;21010;-86
2022/04/28 19:30:30;;;;;;;11.53;6.15;;;;;;;13.04;61.78;101385.95;2851154;81;21581;-88
2022/04/28 19:34:31;;;;;;;12.05;8.40;;;;;;;12.92;62.00;101391.73;2870570;80;21634;-85
2022/04/28 19:38:33;;;;;;;12.93;9.33;;;;;;;12.79;62.93;101394.97;2831025;80;21049;-87
2022/04/28 19:42:35;;;;;;;17.45;10.10;;;;;;;12.66;63.05;101394.52;2850094;81;21030;-84